Time;durP1;ratioP1;P1;durP2;ratioP2;P2;SDS_P1;SDS_P2;PMS_P1;PMS_P2;Temp;Humidity;BMP_temperature;BMP_pressure;BME280_temperature;BME280_humidity;BME280_pressure;Samples;Min_cycle;Max_cycle;Signal;HPM_P1;HPM_P2
2023/02/26 00:00:59;;;;;;;6.93;3.50;;;;;;;-3.63;59.79;95142.63;4962265;28;20444;-64
2023/02/26 00:03:25;;;;;;;4.57;1.90;;;;;;;-3.71;55.43;95130.09;4961751;28;20046;-64
2023/02/26 00:05:50;;;;;;;1.85;1.08;;;;;;;-4.04;50.97;95129.59;4961090;28;20027;-64
2023/02/26 00:08:16;;;;;;;3.53;1.55;;;;;;;-4.92;52.33;95127.31;4961369;28;20039;-64
2023/02/26 00:10:42;;;;;;;3.20;1.73;;;;;;;-5.23;53.66;95133.41;4962495;28;20153;-64
2023/02/26 00:13:09;;;;;;;6.53;1.50;;;;;;;-5.85;53.95;95135.28;4962350;28;20627;-64
2023/02/26 00:15:34;;;;;;;3.45;1.58;;;;;;;-6.26;55.77;95147.06;4960129;28;20123;-64
2023/02/26 00:18:08;;;;;;;4.35;1.98;;;;;;;-6.30;59.88;95152.50;4959751;28;20396;-64
2023/02/26 00:20:35;;;;;;;4.47;2.20;;;;;;;-5.89;63.10;95154.53;4957254;28;20527;-64
2023/02/26 00:23:00;;;;;;;8.68;2.75;;;;;;;-6.51;58.70;95157.94;4959140;28;20030;-64
2023/02/26 00:25:26;;;;;;;6.03;2.63;;;;;;;-5.38;56.67;95162.88;4961535;28;20152;-64
2023/02/26 00:27:52;;;;;;;5.85;2.53;;;;;;;-4.91;62.10;95168.78;4961476;28;20051;-64
2023/02/26 00:30:17;;;;;;;8.57;2.45;;;;;;;-5.23;55.87;95161.97;4959902;28;20046;-64
2023/02/26 00:32:43;;;;;;;6.68;3.25;;;;;;;-5.93;70.70;95178.09;4961176;28;20035;-64
2023/02/26 00:35:13;;;;;;;3.05;2.10;;;;;;;-4.88;59.82;95178.97;4961052;28;20030;-64
2023/02/26 00:37:58;;;;;;;5.40;2.88;;;;;;;-4.05;61.95;95163.50;4961026;28;20320;-64
2023/02/26 00:40:37;;;;;;;6.18;3.05;;;;;;;-4.70;65.72;95186.56;4960897;28;20566;-64
2023/02/26 00:43:04;;;;;;;6.43;2.95;;;;;;;-5.08;58.71;95181.00;4960080;28;20041;-64
2023/02/26 00:45:30;;;;;;;10.10;3.75;;;;;;;-4.93;63.88;95188.78;4960872;28;20492;-64
2023/02/26 00:48:15;;;;;;;8.82;3.85;;;;;;;-4.16;59.06;95192.78;4960450;28;20492;-64
2023/02/26 00:50:58;;;;;;;7.75;3.30;;;;;;;-3.88;56.88;95190.22;4957711;28;20451;-64
2023/02/26 00:53:33;;;;;;;5.53;2.53;;;;;;;-3.66;54.01;95181.84;4959569;28;20077;-64
2023/02/26 00:55:59;;;;;;;4.85;2.28;;;;;;;-2.85;57.49;95186.91;4959905;28;20516;-64
2023/02/26 00:58:24;;;;;;;5.47;3.67;;;;;;;-2.53;60.32;95185.63;4957730;28;20099;-64
2023/02/26 01:00:49;;;;;;;6.63;3.97;;;;;;;-2.64;60.21;95182.00;4960187;28;20046;-64
2023/02/26 01:03:15;;;;;;;8.70;4.53;;;;;;;-2.68;59.08;95187.53;4957656;28;20037;-64
2023/02/26 01:05:41;;;;;;;6.30;3.63;;;;;;;-2.63;62.03;95175.88;4957183;28;20534;-64
2023/02/26 01:08:13;;;;;;;4.85;3.00;;;;;;;-2.98;53.68;95189.53;4960613;28;20034;-64
2023/02/26 01:10:39;;;;;;;5.78;2.72;;;;;;;-5.64;56.13;95192.00;4959339;28;20038;-64
2023/02/26 01:13:05;;;;;;;6.60;3.13;;;;;;;-4.48;63.32;95195.66;4941614;28;20085;-64
2023/02/26 01:15:31;;;;;;;5.38;3.30;;;;;;;-4.47;60.86;95186.91;4959839;28;20049;-64
2023/02/26 01:18:14;;;;;;;7.25;3.30;;;;;;;-4.96;63.18;95196.78;4961326;28;20035;-64
2023/02/26 01:20:45;;;;;;;5.40;2.38;;;;;;;-4.63;61.44;95198.25;4943876;28;20343;-64
2023/02/26 01:23:15;;;;;;;5.25;2.70;;;;;;;-5.61;63.50;95210.00;4959324;28;20030;-64
2023/02/26 01:25:49;;;;;;;5.40;2.78;;;;;;;-5.50;59.82;95203.38;4960795;28;20069;-64
2023/02/26 01:28:14;;;;;;;6.22;3.30;;;;;;;-3.98;63.10;95193.38;4957740;28;20078;-64
2023/02/26 01:30:40;;;;;;;5.95;3.25;;;;;;;-3.87;56.73;95195.28;4960624;28;20043;-64
2023/02/26 01:33:34;;;;;;;6.85;3.00;;;;;;;-5.99;63.41;95206.06;4960139;28;20037;-64
2023/02/26 01:36:13;;;;;;;4.20;2.70;;;;;;;-5.78;65.04;95212.72;4955741;28;20267;-64
2023/02/26 01:38:43;;;;;;;5.38;2.88;;;;;;;-5.29;58.53;95216.00;4959480;28;20498;-64
2023/02/26 01:41:23;;;;;;;7.07;3.50;;;;;;;-4.66;56.64;95208.00;4953031;28;20037;-64
2023/02/26 01:44:07;;;;;;;5.45;3.10;;;;;;;-3.85;55.87;95198.66;4960615;28;20534;-64
2023/02/26 01:46:38;;;;;;;5.55;2.88;;;;;;;-6.01;60.78;95209.66;4959222;28;20069;-64
2023/02/26 01:49:04;;;;;;;5.82;3.03;;;;;;;-5.99;58.87;95208.66;4956292;28;20035;-67
2023/02/26 01:51:41;;;;;;;4.05;2.58;;;;;;;-6.22;59.68;95214.28;4944381;28;20403;-64
2023/02/26 01:54:07;;;;;;;3.28;2.53;;;;;;;-6.49;60.43;95218.28;4958051;28;20053;-64
2023/02/26 01:56:33;;;;;;;5.43;3.03;;;;;;;-6.64;65.86;95227.69;4961412;28;20034;-64
2023/02/26 01:58:58;;;;;;;5.13;2.75;;;;;;;-6.75;60.87;95215.31;4961631;28;20539;-64
2023/02/26 02:01:23;;;;;;;4.03;2.95;;;;;;;-5.90;66.63;95220.28;4943009;28;20039;-70
2023/02/26 02:03:49;;;;;;;3.28;2.58;;;;;;;-6.86;63.35;95215.03;4957546;28;20034;-69
2023/02/26 02:06:17;;;;;;;5.60;2.75;;;;;;;-7.12;72.15;95210.28;4958830;28;20065;-70
2023/02/26 02:08:42;;;;;;;3.92;2.38;;;;;;;-6.57;63.66;95217.84;4957209;28;20142;-69
2023/02/26 02:11:09;;;;;;;4.78;2.90;;;;;;;-6.30;64.91;95212.09;4941811;28;20420;-70
2023/02/26 02:13:42;;;;;;;4.50;2.72;;;;;;;-6.92;62.17;95208.44;4948437;28;20164;-70
2023/02/26 02:16:33;;;;;;;5.65;2.72;;;;;;;-6.09;67.81;95214.44;4954364;28;20074;-70
2023/02/26 02:19:36;;;;;;;6.15;2.83;;;;;;;-6.72;58.16;95207.38;4950592;28;20446;-70
2023/02/26 02:22:10;;;;;;;4.32;2.80;;;;;;;-5.27;61.84;95216.78;4956436;28;20133;-70
2023/02/26 02:24:54;;;;;;;4.18;2.70;;;;;;;-6.40;61.66;95222.13;4958707;28;20172;-69
2023/02/26 02:27:58;;;;;;;3.42;2.30;;;;;;;-6.94;59.84;95228.38;4958268;28;20537;-70
2023/02/26 02:30:23;;;;;;;5.10;2.30;;;;;;;-6.70;57.58;95231.44;4948571;28;20562;-69
2023/02/26 02:33:03;;;;;;;4.72;2.30;;;;;;;-6.01;59.01;95230.41;4958833;28;20085;-69
2023/02/26 02:35:40;;;;;;;5.90;3.17;;;;;;;-5.72;65.42;95230.53;4941102;28;20073;-70
2023/02/26 02:38:38;;;;;;;3.65;2.30;;;;;;;-5.83;60.26;95246.69;4951794;28;20645;-70
2023/02/26 02:41:12;;;;;;;4.18;2.53;;;;;;;-5.54;66.79;95244.22;4947350;28;20101;-70
2023/02/26 02:43:38;;;;;;;5.30;2.17;;;;;;;-5.21;55.15;95248.41;4944373;28;20577;-70
2023/02/26 02:46:05;;;;;;;8.35;2.30;;;;;;;-6.04;54.38;95252.16;4960922;28;20102;-70
2023/02/26 02:48:37;;;;;;;3.97;2.38;;;;;;;-7.48;57.73;95257.81;4959645;28;20759;-69
2023/02/26 02:51:26;;;;;;;4.65;2.38;;;;;;;-5.76;59.88;95254.97;4942032;28;20103;-70
2023/02/26 02:53:56;;;;;;;5.95;2.90;;;;;;;-5.23;62.05;95254.59;4945228;28;20189;-70
2023/02/26 02:56:26;;;;;;;;;;;;;;;-5.39;58.49;95245.09;4960889;28;20946;-70
2023/02/26 02:59:05;;;;;;;4.50;2.00;;;;;;;-4.83;62.09;95252.25;4961398;28;19978;-70
2023/02/26 03:01:31;;;;;;;5.35;2.60;;;;;;;-4.74;54.93;95244.84;4960314;28;20569;-70
2023/02/26 03:04:10;;;;;;;5.45;2.38;;;;;;;-6.09;53.38;95250.75;4944150;28;20084;-69
2023/02/26 03:06:36;;;;;;;3.88;2.13;;;;;;;-6.13;57.91;95250.91;4959738;28;20109;-70
2023/02/26 03:09:03;;;;;;;7.38;1.85;;;;;;;-5.78;53.60;95246.44;4959749;28;20105;-69
2023/02/26 03:11:29;;;;;;;4.47;2.40;;;;;;;-5.35;63.23;95256.13;4961720;28;20071;-69
2023/02/26 03:13:54;;;;;;;3.88;2.40;;;;;;;-5.40;58.10;95253.78;4961077;28;20114;-69
2023/02/26 03:16:44;;;;;;;3.97;2.42;;;;;;;-5.17;60.26;95258.59;4961290;28;20190;-70
2023/02/26 03:19:27;;;;;;;5.38;2.25;;;;;;;-7.05;62.39;95257.41;4960421;28;20263;-70
2023/02/26 03:22:25;;;;;;;6.13;2.47;;;;;;;-7.19;55.10;95264.13;4959145;28;20156;-69
2023/02/26 03:25:06;;;;;;;3.35;2.13;;;;;;;-6.77;55.78;95271.50;4959786;28;20080;-69
2023/02/26 03:27:48;;;;;;;2.78;2.10;;;;;;;-6.87;63.01;95271.16;4959217;28;20754;-69
2023/02/26 03:30:29;;;;;;;2.63;1.88;;;;;;;-6.65;57.44;95264.88;4959731;28;20189;-69
2023/02/26 03:33:21;;;;;;;3.25;2.28;;;;;;;-6.40;61.40;95274.78;4959618;28;20253;-69
2023/02/26 03:35:50;;;;;;;3.33;2.15;;;;;;;-7.61;56.21;95283.41;4961207;28;20076;-69
2023/02/26 03:38:32;;;;;;;5.63;2.08;;;;;;;-7.28;58.13;95278.34;4959318;28;20085;-70
2023/02/26 03:41:07;;;;;;;5.43;2.20;;;;;;;-6.11;57.99;95280.16;4959490;28;20156;-69
2023/02/26 03:43:46;;;;;;;4.15;1.90;;;;;;;-6.70;61.81;95279.81;4959172;28;20070;-70
2023/02/26 03:46:17;;;;;;;2.50;2.08;;;;;;;-6.03;64.15;95278.91;4944255;28;20536;-69
2023/02/26 03:48:43;;;;;;;6.07;2.20;;;;;;;-6.69;60.33;95277.13;4952618;28;20086;-69
2023/02/26 03:51:10;;;;;;;4.22;2.00;;;;;;;-6.09;55.83;95282.66;4959617;28;20507;-70
2023/02/26 03:53:40;;;;;;;5.82;2.08;;;;;;;-6.67;53.71;95288.25;4958259;28;20103;-69
2023/02/26 03:56:39;;;;;;;3.70;2.30;;;;;;;-6.26;65.51;95291.34;4958811;28;20079;-70
2023/02/26 03:59:04;;;;;;;7.15;1.90;;;;;;;-6.18;52.59;95288.34;4955159;28;20114;-70
2023/02/26 04:01:37;;;;;;;4.30;1.92;;;;;;;-6.70;56.11;95287.59;4959090;28;20099;-69
2023/02/26 04:04:12;;;;;;;2.65;1.85;;;;;;;-5.38;62.43;95293.50;4950092;28;20529;-69
2023/02/26 04:06:37;;;;;;;4.00;2.00;;;;;;;-5.61;50.64;95293.00;4958808;28;20081;-70
2023/02/26 04:09:03;;;;;;;6.13;2.38;;;;;;;-5.15;55.97;95300.88;4942920;28;20437;-69
2023/02/26 04:11:28;;;;;;;4.68;1.95;;;;;;;-5.68;60.36;95309.84;4958960;28;20069;-70
2023/02/26 04:13:53;;;;;;;3.90;2.40;;;;;;;-5.09;64.76;95314.34;4969430;28;20110;-69
2023/02/26 04:16:19;;;;;;;4.15;2.30;;;;;;;-5.33;63.45;95314.00;4960335;28;20080;-70
2023/02/26 04:18:45;;;;;;;3.78;2.40;;;;;;;-4.82;63.37;95310.25;4960291;28;20567;-70
2023/02/26 04:21:14;;;;;;;7.25;2.20;;;;;;;-4.85;57.66;95313.03;4959387;28;20103;-69
2023/02/26 04:23:40;;;;;;;2.92;2.20;;;;;;;-4.90;59.82;95315.88;4942823;28;20157;-69
2023/02/26 04:26:05;;;;;;;3.15;2.20;;;;;;;-4.88;57.08;95323.59;4955500;28;20098;-70
2023/02/26 04:28:31;;;;;;;5.95;2.40;;;;;;;-4.76;57.19;95325.47;4960102;28;20103;-70
2023/02/26 04:30:56;;;;;;;3.42;2.30;;;;;;;-4.92;54.28;95327.28;4959943;28;20102;-70
2023/02/26 04:33:22;;;;;;;3.28;2.25;;;;;;;-5.02;55.53;95326.97;4959716;28;20111;-69
2023/02/26 04:35:47;;;;;;;4.32;2.28;;;;;;;-5.29;62.54;95327.63;4960024;28;20072;-70
2023/02/26 04:38:13;;;;;;;6.25;2.45;;;;;;;-5.48;51.95;95332.09;4959987;28;20097;-70
2023/02/26 04:40:38;;;;;;;5.55;2.10;;;;;;;-5.22;59.51;95335.00;4959738;28;20078;-69
2023/02/26 04:43:04;;;;;;;4.82;2.20;;;;;;;-4.80;61.95;95330.94;4960021;28;20087;-70
2023/02/26 04:45:29;;;;;;;3.85;2.30;;;;;;;-4.70;58.40;95329.47;4958472;28;20095;-70
2023/02/26 04:47:55;;;;;;;6.82;2.38;;;;;;;-4.72;60.32;95331.31;4960023;28;20131;-69
2023/02/26 04:50:20;;;;;;;3.47;2.38;;;;;;;-4.70;63.28;95334.66;4957673;28;20768;-70
2023/02/26 04:52:45;;;;;;;2.40;2.10;;;;;;;-4.59;64.53;95339.22;4959091;28;20068;-69
2023/02/26 04:55:11;;;;;;;3.70;2.17;;;;;;;-4.40;63.72;95340.72;4959681;28;20098;-70
2023/02/26 04:57:36;;;;;;;4.78;2.30;;;;;;;-4.54;58.75;95339.78;4959423;28;20101;-69
2023/02/26 05:00:06;;;;;;;3.78;2.40;;;;;;;-4.65;61.60;95348.22;4959973;28;20078;-70
2023/02/26 05:02:31;;;;;;;;;;;;;;;-5.64;53.53;95344.25;4958680;28;20181;-69
2023/02/26 05:04:56;;;;;;;3.53;2.30;;;;;;;-5.72;57.28;95342.91;4959349;28;19984;-70
2023/02/26 05:07:22;;;;;;;4.95;2.30;;;;;;;-5.98;57.15;95347.72;4959435;28;20080;-70
2023/02/26 05:09:47;;;;;;;4.00;2.53;;;;;;;-5.95;60.98;95343.31;4959267;28;20178;-69
2023/02/26 05:12:12;;;;;;;3.78;2.42;;;;;;;-5.93;60.55;95354.44;4959422;28;20074;-70
2023/02/26 05:14:38;;;;;;;3.05;2.30;;;;;;;-5.78;60.00;95363.16;4959268;28;20105;-69
2023/02/26 05:17:03;;;;;;;2.42;2.17;;;;;;;-5.94;61.41;95363.97;4959098;28;20104;-69
2023/02/26 05:19:28;;;;;;;4.10;2.42;;;;;;;-5.29;65.01;95361.38;4959234;28;20492;-70
2023/02/26 05:21:54;;;;;;;3.58;2.30;;;;;;;-5.24;62.15;95361.94;4958156;28;20113;-69
2023/02/26 05:24:19;;;;;;;5.10;2.55;;;;;;;-5.38;60.42;95355.78;4959355;28;20071;-69
2023/02/26 05:26:45;;;;;;;3.72;2.47;;;;;;;-5.05;63.18;95360.91;4957709;28;20100;-69
2023/02/26 05:29:11;;;;;;;3.75;2.30;;;;;;;-5.13;62.77;95362.16;4958970;28;20119;-69
2023/02/26 05:31:37;;;;;;;5.07;2.85;;;;;;;-5.00;61.32;95358.91;4959272;28;20078;-69
2023/02/26 05:34:02;;;;;;;3.58;2.42;;;;;;;-4.86;62.30;95366.72;4959094;28;20681;-69
2023/02/26 05:36:27;;;;;;;4.18;2.63;;;;;;;-4.80;63.24;95368.13;4958481;28;20072;-69
2023/02/26 05:38:53;;;;;;;3.58;2.58;;;;;;;-4.93;62.22;95373.19;4959003;28;20094;-70
2023/02/26 05:41:18;;;;;;;3.00;2.40;;;;;;;-4.77;64.72;95382.69;4958540;28;20108;-69
2023/02/26 05:43:44;;;;;;;6.60;3.25;;;;;;;-4.77;61.18;95385.28;4958971;28;20072;-69
2023/02/26 05:46:09;;;;;;;7.22;3.20;;;;;;;-4.86;53.50;95381.47;4958767;28;20106;-69
2023/02/26 05:48:34;;;;;;;3.47;2.70;;;;;;;-4.61;62.71;95385.25;4958428;28;20086;-69
2023/02/26 05:51:00;;;;;;;5.95;2.97;;;;;;;-4.93;54.34;95380.97;4959161;28;20478;-70
2023/02/26 05:53:25;;;;;;;4.55;3.00;;;;;;;-4.91;57.42;95386.94;4958697;28;20145;-69
2023/02/26 05:55:52;;;;;;;4.88;2.80;;;;;;;-5.17;53.45;95399.63;4958799;28;20087;-69
2023/02/26 05:58:17;;;;;;;4.32;2.80;;;;;;;-5.29;52.84;95411.53;4958801;28;20091;-69
2023/02/26 06:00:43;;;;;;;3.35;2.50;;;;;;;-4.93;56.42;95404.34;4958902;28;20084;-69
2023/02/26 06:03:08;;;;;;;6.88;2.85;;;;;;;-5.38;50.84;95396.44;4957457;28;20070;-69
2023/02/26 06:05:35;;;;;;;2.92;1.98;;;;;;;-5.16;52.88;95405.66;4958205;28;20158;-69
2023/02/26 06:08:00;;;;;;;4.25;2.13;;;;;;;-5.39;50.45;95416.41;4958875;28;20570;-69
2023/02/26 06:10:26;;;;;;;4.45;2.47;;;;;;;-5.03;60.22;95424.00;4957577;28;20101;-69
2023/02/26 06:12:51;;;;;;;3.58;2.38;;;;;;;-5.66;54.82;95424.75;4958500;28;20091;-69
2023/02/26 06:15:16;;;;;;;3.35;2.10;;;;;;;-5.12;60.21;95439.16;4959113;28;20088;-69
2023/02/26 06:17:42;;;;;;;4.60;2.30;;;;;;;-5.24;58.97;95432.88;4958735;28;20600;-69
2023/02/26 06:20:08;;;;;;;4.47;2.53;;;;;;;-5.73;55.12;95438.97;4962459;28;20078;-69
2023/02/26 06:22:34;;;;;;;3.35;2.50;;;;;;;-5.55;50.61;95444.06;4961821;28;20627;-69
2023/02/26 06:24:59;;;;;;;7.32;3.00;;;;;;;-5.86;55.25;95449.13;4962488;28;20326;-69
2023/02/26 06:27:24;;;;;;;4.13;2.50;;;;;;;-5.37;59.16;95460.44;4961813;28;20836;-69
2023/02/26 06:29:50;;;;;;;5.70;2.60;;;;;;;-5.50;56.32;95465.44;4962497;28;20099;-69
2023/02/26 06:32:15;;;;;;;2.72;2.15;;;;;;;-5.62;59.79;95472.09;4962582;28;20100;-69
2023/02/26 06:34:41;;;;;;;5.75;2.50;;;;;;;-5.33;58.96;95474.91;4961859;28;20107;-69
2023/02/26 06:37:06;;;;;;;2.78;2.05;;;;;;;-5.34;59.47;95475.81;4961576;28;20112;-69
2023/02/26 06:39:31;;;;;;;7.38;2.67;;;;;;;-5.29;58.68;95476.44;4962651;28;20068;-69
2023/02/26 06:41:57;;;;;;;3.65;2.50;;;;;;;-5.39;53.86;95480.44;4960402;28;20461;-69
2023/02/26 06:44:22;;;;;;;3.97;2.35;;;;;;;-5.87;57.50;95486.38;4962641;28;20069;-69
2023/02/26 06:46:48;;;;;;;4.50;2.50;;;;;;;-5.27;60.21;95499.72;4961393;28;20097;-69
2023/02/26 06:49:13;;;;;;;4.22;2.63;;;;;;;-5.43;56.86;95508.31;4961621;28;20090;-69
2023/02/26 06:51:39;;;;;;;3.90;2.40;;;;;;;-4.61;64.72;95515.19;4962210;28;20068;-69
2023/02/26 06:54:04;;;;;;;3.22;2.25;;;;;;;-4.36;61.63;95514.63;4961280;28;20523;-69
2023/02/26 06:56:30;;;;;;;5.55;2.72;;;;;;;-4.31;59.46;95520.38;4960522;28;20079;-68
2023/02/26 06:58:58;;;;;;;4.55;2.05;;;;;;;-4.16;61.23;95523.03;4961567;28;20168;-69
2023/02/26 07:01:23;;;;;;;2.13;1.92;;;;;;;-3.98;62.29;95533.31;4961215;28;20606;-69
2023/02/26 07:03:49;;;;;;;2.80;2.50;;;;;;;-4.04;58.11;95532.72;4962105;28;20062;-69
2023/02/26 07:06:14;;;;;;;4.13;2.10;;;;;;;-3.91;60.08;95537.22;4961554;28;20701;-69
2023/02/26 07:08:40;;;;;;;5.80;2.30;;;;;;;-3.81;61.75;95540.94;4943944;28;20106;-68
2023/02/26 07:11:07;;;;;;;4.65;2.30;;;;;;;-3.82;61.65;95539.28;4961966;28;20094;-70
2023/02/26 07:13:33;;;;;;;6.00;2.50;;;;;;;-3.71;52.01;95538.66;4956503;28;20178;-69
2023/02/26 07:15:58;;;;;;;6.13;2.58;;;;;;;-3.52;56.03;95537.56;4960054;28;20078;-69
2023/02/26 07:18:23;;;;;;;4.60;2.50;;;;;;;-3.20;61.62;95545.16;4961446;28;20067;-69
2023/02/26 07:20:49;;;;;;;3.92;2.17;;;;;;;-2.83;58.30;95549.03;4960827;28;20089;-69
2023/02/26 07:23:14;;;;;;;3.20;2.28;;;;;;;-3.06;57.24;95546.94;4961996;28;20038;-69
2023/02/26 07:25:40;;;;;;;3.40;2.35;;;;;;;-2.40;56.44;95551.53;4960918;28;20037;-69
2023/02/26 07:28:05;;;;;;;3.63;2.20;;;;;;;-2.02;59.04;95555.19;4961749;28;20527;-69
2023/02/26 07:30:31;;;;;;;6.15;2.47;;;;;;;-2.28;53.42;95570.75;4961212;28;20042;-69
2023/02/26 07:32:56;;;;;;;3.17;2.22;;;;;;;-1.97;57.24;95565.31;4961313;28;20370;-70
2023/02/26 07:35:22;;;;;;;3.35;2.33;;;;;;;-1.83;59.80;95567.03;4961271;28;20062;-69
2023/02/26 07:37:47;;;;;;;3.80;2.33;;;;;;;-2.16;60.74;95566.53;4961245;28;20492;-69
2023/02/26 07:40:12;;;;;;;2.97;2.33;;;;;;;-2.04;56.90;95564.06;4961258;28;20484;-69
2023/02/26 07:42:38;;;;;;;2.85;2.00;;;;;;;-1.99;53.12;95559.38;4960899;28;20047;-69
2023/02/26 07:45:04;;;;;;;4.63;2.22;;;;;;;-2.14;50.94;95575.09;4958297;28;20578;-69
2023/02/26 07:47:29;;;;;;;4.25;2.38;;;;;;;-2.08;59.31;95579.06;4959200;28;20049;-69
2023/02/26 07:49:55;;;;;;;5.25;2.30;;;;;;;-2.12;58.64;95572.38;4957987;28;20034;-69
2023/02/26 07:52:21;;;;;;;5.43;2.33;;;;;;;-1.92;57.43;95575.44;4960691;28;20487;-69
2023/02/26 07:54:46;;;;;;;4.25;2.05;;;;;;;-2.50;52.33;95587.78;4959187;28;20041;-69
2023/02/26 07:57:12;;;;;;;3.65;2.30;;;;;;;-2.32;57.16;95584.09;4958604;28;20031;-69
2023/02/26 07:59:37;;;;;;;2.53;2.00;;;;;;;-2.44;53.52;95591.75;4959221;28;20419;-69
2023/02/26 08:02:02;;;;;;;4.05;2.10;;;;;;;-3.01;48.20;95580.53;4958895;28;20047;-69
2023/02/26 08:04:28;;;;;;;3.72;2.30;;;;;;;-2.35;52.67;95587.72;4959422;28;20045;-69
2023/02/26 08:06:56;;;;;;;7.00;2.92;;;;;;;-2.13;47.05;95591.59;4959007;28;20046;-69
2023/02/26 08:09:21;;;;;;;5.85;2.85;;;;;;;-1.69;61.19;95601.81;4957630;28;20038;-70
2023/02/26 08:11:46;;;;;;;4.60;2.50;;;;;;;-1.37;56.05;95601.44;4959740;28;20235;-69
2023/02/26 08:14:12;;;;;;;3.28;2.30;;;;;;;-1.30;51.29;95605.31;4959501;28;20310;-69
2023/02/26 08:16:37;;;;;;;4.03;2.40;;;;;;;-0.72;58.18;95606.63;4960146;28;20041;-69
2023/02/26 08:19:03;;;;;;;2.92;2.10;;;;;;;-0.26;52.29;95596.47;4957560;28;20388;-69
2023/02/26 08:21:29;;;;;;;4.10;2.28;;;;;;;0.02;53.50;95597.91;4959188;28;20093;-69
2023/02/26 08:23:54;;;;;;;4.30;2.53;;;;;;;0.05;48.58;95596.84;4959910;28;20332;-69
2023/02/26 08:26:19;;;;;;;3.72;2.22;;;;;;;0.28;52.65;95596.94;4959325;28;20590;-69
2023/02/26 08:28:46;;;;;;;2.85;2.10;;;;;;;0.00;46.79;95594.56;4959139;28;20408;-69
2023/02/26 08:31:12;;;;;;;2.10;1.73;;;;;;;-0.17;46.98;95601.03;4959448;28;20093;-69
2023/02/26 08:33:38;;;;;;;3.38;1.90;;;;;;;-0.06;54.52;95598.47;4958637;28;20038;-69
2023/02/26 08:36:03;;;;;;;2.38;1.88;;;;;;;0.25;46.75;95603.25;4957298;28;20038;-70
2023/02/26 08:38:29;;;;;;;3.40;2.22;;;;;;;0.48;50.90;95603.28;4959119;28;20058;-70
2023/02/26 08:40:55;;;;;;;3.30;2.10;;;;;;;0.23;44.15;95610.38;4958895;28;20031;-69
2023/02/26 08:43:20;;;;;;;3.97;2.13;;;;;;;0.20;46.17;95607.97;4959484;28;20373;-70
2023/02/26 08:45:46;;;;;;;2.88;2.08;;;;;;;0.46;50.94;95607.84;4958906;28;20034;-70
2023/02/26 08:48:12;;;;;;;4.78;1.90;;;;;;;0.65;52.61;95622.19;4959497;28;20049;-70
2023/02/26 08:50:39;;;;;;;4.80;3.00;;;;;;;0.95;52.46;95618.16;4957403;28;20424;-70
2023/02/26 08:53:04;;;;;;;5.57;3.15;;;;;;;1.34;50.46;95620.44;4958663;28;20475;-70
2023/02/26 08:55:30;;;;;;;4.90;2.50;;;;;;;1.33;51.45;95614.34;4958776;28;20480;-70
2023/02/26 08:57:55;;;;;;;5.60;2.28;;;;;;;1.55;46.75;95617.13;4956576;28;20099;-70
2023/02/26 09:00:21;;;;;;;3.65;2.08;;;;;;;1.80;51.84;95623.06;4959148;28;20046;-70
2023/02/26 09:02:46;;;;;;;4.18;2.10;;;;;;;1.64;46.38;95633.94;4956759;28;20436;-70
2023/02/26 09:05:13;;;;;;;4.07;1.98;;;;;;;1.80;41.57;95625.69;4959022;28;20144;-70
2023/02/26 09:07:39;;;;;;;2.35;1.70;;;;;;;2.18;42.54;95623.53;4959121;28;20117;-70
2023/02/26 09:10:05;;;;;;;3.83;2.03;;;;;;;1.96;39.46;95630.53;4957093;28;20494;-70
2023/02/26 09:12:31;;;;;;;2.13;1.75;;;;;;;2.18;43.44;95628.78;4958739;28;20247;-69
2023/02/26 09:14:57;;;;;;;1.67;1.33;;;;;;;2.19;34.32;95638.34;4959089;28;20132;-70
2023/02/26 09:17:24;;;;;;;3.08;1.60;;;;;;;2.12;38.35;95649.31;4957554;28;20034;-70
2023/02/26 09:19:49;;;;;;;2.80;1.65;;;;;;;2.66;42.62;95648.53;4957163;28;20141;-70
2023/02/26 09:22:15;;;;;;;2.90;1.80;;;;;;;2.78;41.68;95657.19;4921351;28;1102589;-70
2023/02/26 09:24:40;;;;;;;2.83;2.00;;;;;;;3.27;42.69;95659.28;4959221;28;20042;-68
2023/02/26 09:27:06;;;;;;;2.95;1.77;;;;;;;3.35;37.74;95663.88;4958446;28;20035;-69
2023/02/26 09:29:31;;;;;;;2.13;1.60;;;;;;;3.70;35.10;95667.94;4959350;28;20562;-70
2023/02/26 09:31:56;;;;;;;3.08;1.80;;;;;;;4.06;40.40;95668.28;4959306;28;20039;-70
2023/02/26 09:34:22;;;;;;;1.42;1.30;;;;;;;3.91;33.04;95680.22;4959089;28;20045;-70
2023/02/26 09:36:47;;;;;;;2.65;1.75;;;;;;;4.30;39.06;95675.00;4959146;28;20395;-70
2023/02/26 09:39:13;;;;;;;2.88;1.30;;;;;;;4.21;36.72;95677.63;4959582;28;20422;-70
2023/02/26 09:41:58;;;;;;;2.22;1.42;;;;;;;4.43;30.71;95676.53;4959180;28;20544;-69
2023/02/26 09:44:28;;;;;;;1.80;1.50;;;;;;;4.53;32.48;95677.38;4957135;28;20563;-69
2023/02/26 09:46:59;;;;;;;2.95;2.33;;;;;;;4.91;33.77;95676.66;4940197;28;20587;-69
2023/02/26 09:49:35;;;;;;;2.45;1.60;;;;;;;5.14;32.67;95677.19;4956609;28;20073;-70
2023/02/26 09:52:23;;;;;;;2.30;1.90;;;;;;;5.29;31.36;95684.69;4956017;28;20041;-70
2023/02/26 09:54:58;;;;;;;2.57;1.27;;;;;;;4.97;34.10;95698.03;4960688;28;20042;-70
2023/02/26 09:57:33;;;;;;;3.78;1.27;;;;;;;4.15;28.52;95692.19;4962010;28;20071;-70
2023/02/26 09:59:59;;;;;;;1.52;1.30;;;;;;;4.20;35.17;95697.88;4961183;28;20483;-70
2023/02/26 10:02:38;;;;;;;1.40;1.23;;;;;;;4.62;31.79;95712.63;4943680;28;20072;-70
2023/02/26 10:05:08;;;;;;;1.33;1.20;;;;;;;4.23;30.84;95710.78;4958658;28;20378;-70
2023/02/26 10:07:45;;;;;;;2.15;1.27;;;;;;;3.03;32.76;95724.34;4961643;28;20067;-70
2023/02/26 10:10:45;;;;;;;3.58;2.15;;;;;;;3.48;38.43;95721.59;4967439;28;20069;-69
2023/02/26 10:13:36;;;;;;;3.40;1.70;;;;;;;3.23;34.63;95727.09;4959049;28;20102;-69
2023/02/26 10:16:06;;;;;;;3.20;1.83;;;;;;;2.93;42.73;95739.25;4962336;28;20604;-69
2023/02/26 10:18:34;;;;;;;3.28;2.08;;;;;;;2.65;37.86;95742.34;4962276;28;20448;-69
2023/02/26 10:21:11;;;;;;;5.03;2.80;;;;;;;3.26;43.29;95744.44;4959875;28;20205;-69
2023/02/26 10:23:59;;;;;;;3.30;1.75;;;;;;;2.18;36.97;95741.75;4946183;28;20176;-70
2023/02/26 10:26:40;;;;;;;2.53;2.08;;;;;;;2.59;38.33;95731.50;4960634;28;20074;-70
2023/02/26 10:29:27;;;;;;;3.28;2.33;;;;;;;2.81;40.07;95735.81;4954730;28;20127;-70
2023/02/26 10:32:30;;;;;;;3.50;2.30;;;;;;;3.05;36.72;95747.91;4960691;28;20894;-70
2023/02/26 10:35:03;;;;;;;4.20;2.08;;;;;;;3.33;34.25;95740.31;4961762;28;20083;-70
2023/02/26 10:37:35;;;;;;;2.45;1.65;;;;;;;3.74;35.56;95760.69;4960553;28;20077;-70
2023/02/26 10:40:08;;;;;;;1.83;1.33;;;;;;;4.08;37.78;95749.84;4960067;28;20044;-70
2023/02/26 10:42:40;;;;;;;2.53;1.50;;;;;;;4.07;37.14;95753.44;4960191;28;20490;-70
2023/02/26 10:45:24;;;;;;;2.25;1.90;;;;;;;4.21;40.54;95765.41;4960460;28;20072;-70
2023/02/26 10:48:08;;;;;;;2.63;1.40;;;;;;;4.39;33.99;95765.59;4962331;28;20061;-70
2023/02/26 10:50:33;;;;;;;3.20;1.67;;;;;;;4.43;38.67;95759.09;4961995;28;20068;-70
2023/02/26 10:52:59;;;;;;;3.45;2.20;;;;;;;4.58;38.19;95762.19;4961713;28;20077;-70
2023/02/26 10:55:37;;;;;;;2.85;1.77;;;;;;;4.41;31.83;95760.19;4962141;28;20045;-70
2023/02/26 10:58:04;;;;;;;1.83;1.60;;;;;;;4.81;34.71;95761.09;4967562;28;20070;-70
2023/02/26 11:00:29;;;;;;;1.83;1.67;;;;;;;4.82;32.98;95763.59;4962060;28;20482;-70
2023/02/26 11:02:55;;;;;;;1.92;1.70;;;;;;;5.26;30.65;95764.16;4943907;28;20666;-71
2023/02/26 11:05:26;;;;;;;2.15;1.60;;;;;;;5.38;31.59;95770.97;4960296;28;20075;-71
2023/02/26 11:08:08;;;;;;;2.65;1.60;;;;;;;5.93;30.96;95763.31;4962200;28;20027;-71
2023/02/26 11:10:43;;;;;;;2.72;1.83;;;;;;;5.92;32.67;95780.16;4959636;28;20475;-71
2023/02/26 11:13:09;;;;;;;1.63;1.52;;;;;;;5.08;28.97;95781.56;4960238;28;20095;-70
2023/02/26 11:15:34;;;;;;;2.25;1.83;;;;;;;5.26;31.88;95782.63;4961337;28;20038;-71
2023/02/26 11:18:00;;;;;;;2.47;1.48;;;;;;;5.18;32.41;95786.84;4959781;28;20109;-70
2023/02/26 11:20:28;;;;;;;2.03;1.60;;;;;;;5.17;35.69;95793.06;4959222;28;20767;-70
2023/02/26 11:22:56;;;;;;;2.50;1.95;;;;;;;4.92;35.79;95791.78;4961058;28;20131;-70
2023/02/26 11:25:23;;;;;;;3.03;2.10;;;;;;;4.77;33.67;95792.19;4943937;28;20667;-71
2023/02/26 11:27:52;;;;;;;2.85;2.00;;;;;;;4.88;35.78;95795.66;4958063;28;20735;-70
2023/02/26 11:30:21;;;;;;;3.20;2.20;;;;;;;4.64;39.28;95797.72;4943608;28;20123;-70
2023/02/26 11:32:50;;;;;;;2.75;2.20;;;;;;;4.68;31.38;95793.84;4960904;28;20070;-70
2023/02/26 11:35:17;;;;;;;2.40;1.80;;;;;;;4.84;36.88;95795.94;4961250;28;20074;-70
2023/02/26 11:37:46;;;;;;;2.63;2.08;;;;;;;4.73;31.75;95795.25;4959629;28;20133;-70
2023/02/26 11:40:16;;;;;;;1.92;1.83;;;;;;;4.64;34.25;95797.72;4943869;28;20101;-71
2023/02/26 11:43:08;;;;;;;3.25;1.88;;;;;;;4.63;31.13;95800.50;4960351;28;20459;-70
2023/02/26 11:45:34;;;;;;;2.38;1.90;;;;;;;4.71;34.44;95801.50;4959848;28;20050;-70
2023/02/26 11:48:02;;;;;;;2.70;1.67;;;;;;;4.75;36.58;95803.84;4961376;28;20358;-71